Terminal Aerodrome Forecast
Issued by NWS Bismarck, ND

Home | Current Version | Previous Version | Graphics & Text | Print | Product List | Glossary On
Versions: 1 2 3 4 5 6 7 8 9 10 11 12 13 14 15 16 17 18 19 20 21 22 23 24 25 26 27 28
878
FTUS43 KBIS 042339
TAFBIS
TAF
KBIS 042339Z 0500/0524 21005KT P6SM SCT250
     FM050400 14004KT P6SM BKN150
     FM051200 23004KT P6SM OVC035
     FM051400 28008KT P6SM OVC020
     FM051600 28011G19KT P6SM OVC015
     FM051900 29016G26KT P6SM VCSH OVC012=

USA.gov is the U.S. government's official web portal to all federal, state and local government web resources and services.